createdAt,value
2022-08-05T00:01:36.018Z,2.90
2022-08-05T00:04:03.848Z,2.95
2022-08-05T00:06:33.404Z,2.58
2022-08-05T00:09:04.147Z,3.07
2022-08-05T00:11:48.247Z,2.90
2022-08-05T00:14:16.912Z,3.08
2022-08-05T00:16:52.537Z,2.90
2022-08-05T00:19:22.326Z,2.95
2022-08-05T00:21:49.595Z,2.90
2022-08-05T00:24:19.287Z,3.95
2022-08-05T00:26:52.154Z,3.28
2022-08-05T00:29:25.367Z,3.30
2022-08-05T00:32:13.530Z,3.95
2022-08-05T00:34:53.954Z,3.93
2022-08-05T00:37:35.762Z,3.60
2022-08-05T00:40:17.922Z,3.92
2022-08-05T00:42:55.110Z,3.70
2022-08-05T00:45:24.985Z,4.38
2022-08-05T00:47:57.781Z,3.67
2022-08-05T00:50:32.551Z,3.65
2022-08-05T00:52:59.174Z,4.00
2022-08-05T00:55:33.865Z,3.63
2022-08-05T00:58:01.653Z,3.70
2022-08-05T01:00:31.768Z,3.60
2022-08-05T01:02:59.677Z,3.60
2022-08-05T01:05:27.560Z,3.22
2022-08-05T01:08:42.111Z,3.30
2022-08-05T01:10:51.586Z,3.35
2022-08-05T01:13:58.715Z,3.30
2022-08-05T01:16:44.989Z,3.50
2022-08-05T01:20:02.341Z,3.35
2022-08-05T01:22:53.937Z,3.20
2022-08-05T01:25:40.367Z,2.90
2022-08-05T01:28:29.141Z,2.60
2022-08-05T01:31:07.147Z,2.67
2022-08-05T01:33:38.897Z,2.85
2022-08-05T01:36:12.902Z,2.60
2022-08-05T01:38:45.616Z,2.75
2022-08-05T01:41:14.649Z,3.53
2022-08-05T01:43:41.838Z,2.67
2022-08-05T01:46:16.414Z,3.92
2022-08-05T01:48:58.322Z,2.83
2022-08-05T01:51:26.845Z,3.05
2022-08-05T01:53:59.083Z,3.20
2022-08-05T01:58:09.560Z,2.80
2022-08-05T01:59:22.488Z,3.40
2022-08-05T02:01:54.808Z,2.95
2022-08-05T02:04:24.197Z,2.85
2022-08-05T02:06:52.474Z,2.93
2022-08-05T02:09:20.441Z,3.35
2022-08-05T02:12:03.298Z,3.10
2022-08-05T02:14:37.369Z,3.30
2022-08-05T02:17:16.774Z,3.10
2022-08-05T02:20:00.676Z,2.83
2022-08-05T02:22:36.296Z,4.38
2022-08-05T02:25:08.743Z,3.75
2022-08-05T02:27:59.382Z,3.53
2022-08-05T02:30:32.385Z,3.53
2022-08-05T02:33:02.930Z,3.83
2022-08-05T02:35:37.582Z,3.17
2022-08-05T02:38:09.156Z,3.60
2022-08-05T02:40:40.827Z,3.83
2022-08-05T02:43:09.245Z,3.42
2022-08-05T02:45:51.438Z,3.30
2022-08-05T02:48:20.733Z,3.85
2022-08-05T02:51:00.684Z,4.90
2022-08-05T02:53:39.538Z,4.30
2022-08-05T02:56:09.389Z,4.05
2022-08-05T02:58:43.666Z,4.00
2022-08-05T03:01:17.004Z,4.40
2022-08-05T03:04:03.096Z,5.15
2022-08-05T03:06:56.160Z,4.63
2022-08-05T03:09:26.923Z,5.75
2022-08-05T03:12:04.436Z,4.70
2022-08-05T03:14:30.954Z,3.50
2022-08-05T03:16:57.501Z,3.20
2022-08-05T03:19:34.470Z,4.03
2022-08-05T03:22:04.862Z,3.53
2022-08-05T03:24:44.627Z,3.60
2022-08-05T03:27:14.207Z,3.55
2022-08-05T03:29:44.759Z,4.05
2022-08-05T03:32:31.026Z,4.22
2022-08-05T03:34:58.622Z,5.03
2022-08-05T03:37:25.617Z,4.73
2022-08-05T03:40:01.202Z,5.07
2022-08-05T03:42:32.394Z,4.35
2022-08-05T03:45:21.870Z,4.45
2022-08-05T03:47:50.053Z,4.57
2022-08-05T03:50:16.673Z,4.63
2022-08-05T03:55:06.817Z,4.20
2022-08-05T03:56:09.693Z,4.30
2022-08-05T03:58:42.574Z,5.00
2022-08-05T04:01:13.060Z,4.78
2022-08-05T04:04:08.914Z,5.23
2022-08-05T04:06:33.669Z,5.15
2022-08-05T04:09:02.279Z,5.65
2022-08-05T04:11:50.785Z,5.10
2022-08-05T04:14:18.502Z,4.70
2022-08-05T04:16:45.015Z,5.10
2022-08-05T04:19:12.787Z,4.93
2022-08-05T04:22:09.624Z,4.65
2022-08-05T04:24:27.690Z,4.75
2022-08-05T04:26:54.308Z,5.15
2022-08-05T04:29:20.924Z,5.73
2022-08-05T04:31:48.546Z,7.00
2022-08-05T04:34:18.208Z,6.32
2022-08-05T04:36:50.191Z,6.35
2022-08-05T04:39:21.091Z,6.05
2022-08-05T04:41:48.830Z,5.53
2022-08-05T04:44:21.347Z,5.93
2022-08-05T04:46:57.370Z,6.43
2022-08-05T04:49:38.112Z,5.72
2022-08-05T04:52:12.164Z,7.50
2022-08-05T04:54:38.761Z,6.63
2022-08-05T04:57:05.504Z,6.72
2022-08-05T04:59:39.151Z,6.60
2022-08-05T05:02:37.169Z,5.97
2022-08-05T05:05:02.237Z,6.40
2022-08-05T05:07:32.868Z,7.17
2022-08-05T05:10:05.359Z,6.72
2022-08-05T05:12:32.794Z,7.18
2022-08-05T05:14:59.339Z,7.93
2022-08-05T05:17:56.974Z,8.38
2022-08-05T05:20:28.470Z,7.70
2022-08-05T05:22:56.115Z,8.02
2022-08-05T05:25:33.058Z,8.35
2022-08-05T05:28:07.455Z,9.05
2022-08-05T05:30:34.591Z,7.90
2022-08-05T05:33:13.982Z,8.30
2022-08-05T05:35:47.508Z,8.57
2022-08-05T05:38:15.242Z,9.23
2022-08-05T05:40:55.015Z,7.45
2022-08-05T05:43:54.266Z,7.13
2022-08-05T05:46:17.333Z,8.40
2022-08-05T05:48:45.952Z,8.45
2022-08-05T05:51:18.701Z,8.80
2022-08-05T05:53:54.579Z,9.30
2022-08-05T05:56:32.675Z,10.00
2022-08-05T05:59:06.460Z,9.40
2022-08-05T06:01:38.145Z,9.80
2022-08-05T06:04:14.475Z,11.30
2022-08-05T06:06:47.349Z,8.75
2022-08-05T06:09:18.086Z,9.05
2022-08-05T06:12:01.054Z,8.30
2022-08-05T06:14:30.668Z,8.50
2022-08-05T06:16:58.137Z,9.43
2022-08-05T06:19:26.214Z,8.27
2022-08-05T06:22:01.009Z,7.15
2022-08-05T06:24:27.554Z,7.67
2022-08-05T06:26:54.118Z,7.10
2022-08-05T06:29:25.410Z,7.07
2022-08-05T06:32:25.531Z,8.32
2022-08-05T06:34:57.111Z,7.25
2022-08-05T06:37:57.601Z,7.43
2022-08-05T06:40:18.044Z,7.38
2022-08-05T06:42:52.139Z,6.60
2022-08-05T06:45:44.595Z,7.07
2022-08-05T06:48:36.496Z,7.82
2022-08-05T06:50:54.288Z,6.10
2022-08-05T06:53:27.596Z,6.07
2022-08-05T06:55:56.153Z,7.15
2022-08-05T06:58:34.866Z,6.45
2022-08-05T07:01:06.650Z,7.13
2022-08-05T07:03:34.084Z,5.60
2022-08-05T07:06:06.086Z,6.10
2022-08-05T07:08:47.838Z,6.13
2022-08-05T07:11:21.884Z,5.95
2022-08-05T07:14:20.086Z,5.65
2022-08-05T07:18:08.483Z,5.83
2022-08-05T07:20:10.935Z,5.80
2022-08-05T07:22:28.290Z,5.28
2022-08-05T07:24:59.872Z,5.65
2022-08-05T07:27:58.152Z,7.53
2022-08-05T07:30:32.119Z,7.00
2022-08-05T07:33:09.005Z,6.80
2022-08-05T07:36:02.303Z,7.50
2022-08-05T07:38:34.461Z,7.28
2022-08-05T07:42:07.129Z,7.13
2022-08-05T07:44:06.044Z,7.27
2022-08-05T07:46:45.965Z,7.70
2022-08-05T07:49:14.860Z,7.43
2022-08-05T07:51:53.423Z,7.50
2022-08-05T07:54:31.373Z,6.82
2022-08-05T07:57:22.539Z,6.20
2022-08-05T07:59:49.081Z,6.38
2022-08-05T08:02:17.558Z,6.15
2022-08-05T08:04:49.377Z,5.70
2022-08-05T08:07:22.036Z,5.97
2022-08-05T08:09:52.268Z,5.60
2022-08-05T08:12:38.055Z,5.22
2022-08-05T08:15:15.217Z,5.18
2022-08-05T08:17:46.295Z,4.93
2022-08-05T08:20:59.704Z,4.47
2022-08-05T08:23:59.903Z,4.07
2022-08-05T08:26:00.123Z,3.70
2022-08-05T08:28:36.731Z,4.18
2022-08-05T08:31:06.490Z,3.80
2022-08-05T08:33:37.611Z,3.90
2022-08-05T08:36:39.262Z,3.50
2022-08-05T08:38:55.557Z,3.20
2022-08-05T08:41:26.369Z,3.70
2022-08-05T08:45:17.127Z,3.13
2022-08-05T08:47:03.812Z,3.45
2022-08-05T08:50:14.162Z,3.27
2022-08-05T08:52:42.037Z,2.80
2022-08-05T08:55:14.305Z,3.28
2022-08-05T08:57:58.245Z,3.10
2022-08-05T09:00:25.235Z,3.03
2022-08-05T09:02:53.811Z,2.83
2022-08-05T09:05:38.540Z,2.67
2022-08-05T09:08:08.085Z,3.22
2022-08-05T09:10:36.536Z,2.83
2022-08-05T09:13:07.046Z,3.22
2022-08-05T09:15:36.824Z,2.97
2022-08-05T09:18:07.195Z,3.40
2022-08-05T09:20:37.889Z,3.85
2022-08-05T09:23:19.390Z,3.30
2022-08-05T09:26:01.798Z,3.35
2022-08-05T09:28:34.342Z,3.00
2022-08-05T09:31:22.682Z,3.20
2022-08-05T09:33:58.485Z,3.08
2022-08-05T09:36:54.837Z,2.95
2022-08-05T09:39:39.453Z,3.08
2022-08-05T09:42:21.243Z,3.27
2022-08-05T09:44:56.352Z,4.15
2022-08-05T09:47:30.672Z,3.45
2022-08-05T09:50:13.524Z,5.05
2022-08-05T09:52:45.392Z,3.28
2022-08-05T09:55:57.970Z,3.33
2022-08-05T09:58:00.010Z,3.58
2022-08-05T10:00:29.592Z,3.53
2022-08-05T10:02:58.045Z,3.80
2022-08-05T10:05:27.572Z,3.47
2022-08-05T10:08:34.603Z,3.23
2022-08-05T10:10:50.236Z,3.40
2022-08-05T10:13:44.122Z,2.88
2022-08-05T10:16:42.068Z,2.90
2022-08-05T10:19:23.616Z,2.80
2022-08-05T10:21:58.996Z,2.90
2022-08-05T10:24:26.974Z,3.00
2022-08-05T10:26:56.182Z,3.42
2022-08-05T10:30:07.164Z,3.22
2022-08-05T10:32:52.142Z,3.40
2022-08-05T10:35:03.087Z,3.20
2022-08-05T10:37:41.368Z,3.45
2022-08-05T10:40:43.537Z,3.33
2022-08-05T10:43:35.749Z,2.83
2022-08-05T10:46:07.096Z,3.75
2022-08-05T10:48:57.276Z,3.60
2022-08-05T10:51:29.313Z,3.17
2022-08-05T10:54:01.885Z,3.28
2022-08-05T10:56:45.081Z,3.03
2022-08-05T11:00:04.183Z,3.72
2022-08-05T11:02:38.055Z,3.70
2022-08-05T11:05:10.334Z,3.70
2022-08-05T11:08:01.229Z,3.63
2022-08-05T11:10:30.683Z,3.50
2022-08-05T11:12:58.670Z,3.15
2022-08-05T11:16:00.379Z,3.43
2022-08-05T11:18:34.147Z,3.67
2022-08-05T11:21:06.363Z,3.53
2022-08-05T11:24:29.656Z,3.40
2022-08-05T11:27:50.167Z,3.42
2022-08-05T11:30:18.223Z,2.60
2022-08-05T11:32:45.018Z,2.97
2022-08-05T11:36:08.076Z,2.80
2022-08-05T11:38:46.123Z,3.28
2022-08-05T11:41:54.708Z,3.50
2022-08-05T11:44:40.506Z,3.10
2022-08-05T11:47:11.067Z,2.92
2022-08-05T11:49:42.954Z,3.40
2022-08-05T11:52:11.723Z,3.35
2022-08-05T11:54:40.431Z,3.50
2022-08-05T11:57:25.635Z,3.50
2022-08-05T11:59:54.270Z,3.60
2022-08-05T12:02:31.317Z,3.67
2022-08-05T12:05:01.034Z,3.13
2022-08-05T12:08:08.384Z,3.25
2022-08-05T12:10:23.006Z,3.53
2022-08-05T12:12:58.236Z,2.83
2022-08-05T12:15:38.559Z,3.50
2022-08-05T12:18:10.460Z,3.47
2022-08-05T12:20:38.548Z,3.97
2022-08-05T12:23:11.824Z,4.13
2022-08-05T12:25:56.945Z,3.60
2022-08-05T12:28:31.387Z,4.22
2022-08-05T12:31:01.898Z,4.18
2022-08-05T12:33:36.537Z,4.20
2022-08-05T12:36:08.590Z,4.00
2022-08-05T12:38:41.220Z,4.05
2022-08-05T12:41:13.397Z,4.45
2022-08-05T12:44:00.593Z,4.15
2022-08-05T12:46:33.434Z,4.30
2022-08-05T12:49:13.834Z,3.53
2022-08-05T12:52:13.976Z,4.30
2022-08-05T12:54:36.003Z,5.65
2022-08-05T12:57:09.606Z,4.93
2022-08-05T13:01:56.788Z,5.35
2022-08-05T13:02:40.138Z,5.73
2022-08-05T13:05:12.660Z,5.60
2022-08-05T13:07:59.916Z,5.55
2022-08-05T13:10:28.737Z,5.22
2022-08-05T13:12:58.250Z,6.10
2022-08-05T13:15:41.168Z,6.20
2022-08-05T13:18:18.848Z,5.78
2022-08-05T13:20:47.405Z,6.07
2022-08-05T13:23:16.508Z,6.85
2022-08-05T13:25:52.120Z,5.28
2022-08-05T13:28:25.726Z,4.30
2022-08-05T13:30:53.444Z,4.43
2022-08-05T13:34:22.397Z,4.55
2022-08-05T13:36:09.109Z,4.28
2022-08-05T13:38:42.088Z,4.40
2022-08-05T13:41:11.213Z,4.17
2022-08-05T13:43:45.063Z,4.53
2022-08-05T13:46:44.383Z,5.15
2022-08-05T13:49:11.876Z,4.63
2022-08-05T13:51:41.603Z,5.13
2022-08-05T13:54:15.040Z,4.27
2022-08-05T13:56:50.519Z,5.20
2022-08-05T13:59:21.158Z,4.80
2022-08-05T14:01:58.166Z,5.43
2022-08-05T14:04:53.979Z,5.40
2022-08-05T14:07:55.746Z,5.77
2022-08-05T14:10:12.221Z,5.45
2022-08-05T14:12:39.278Z,6.00
2022-08-05T14:16:09.178Z,5.90
2022-08-05T14:17:55.111Z,6.50
2022-08-05T14:20:27.604Z,6.80
2022-08-05T14:22:54.517Z,6.75
2022-08-05T14:25:22.523Z,6.65
2022-08-05T14:27:54.485Z,6.20
2022-08-05T14:30:21.421Z,6.32
2022-08-05T14:32:48.939Z,6.23
2022-08-05T14:35:16.234Z,6.25
2022-08-05T14:37:52.138Z,6.68
2022-08-05T14:40:24.127Z,6.25
2022-08-05T14:42:52.126Z,6.82
2022-08-05T14:45:18.835Z,6.53
2022-08-05T14:48:03.543Z,7.20
2022-08-05T14:50:32.185Z,17.05
2022-08-05T14:53:00.236Z,11.73
2022-08-05T14:55:39.468Z,14.65
2022-08-05T14:58:11.372Z,14.23
2022-08-05T15:00:58.307Z,8.95
2022-08-05T15:03:33.526Z,8.55
2022-08-05T15:06:07.707Z,8.23
2022-08-05T15:08:59.081Z,8.45
2022-08-05T15:11:52.043Z,8.63
2022-08-05T15:14:20.143Z,12.15
2022-08-05T15:17:01.210Z,10.35
2022-08-05T15:19:27.866Z,12.45
2022-08-05T15:21:54.427Z,9.68
2022-08-05T15:24:27.028Z,8.70
2022-08-05T15:26:53.560Z,9.70
2022-08-05T15:29:22.820Z,9.40
2022-08-05T15:31:52.943Z,10.32
2022-08-05T15:34:32.281Z,7.95
2022-08-05T15:37:06.497Z,8.00
2022-08-05T15:41:01.991Z,8.05
2022-08-05T15:42:53.705Z,8.90
2022-08-05T15:45:11.458Z,8.68
2022-08-05T15:47:38.911Z,6.88
2022-08-05T15:50:06.545Z,6.57
2022-08-05T15:52:53.163Z,5.90
2022-08-05T15:55:24.523Z,6.30
2022-08-05T15:57:52.399Z,4.90
2022-08-05T16:00:25.992Z,4.32
2022-08-05T16:03:06.902Z,4.00
2022-08-05T16:05:33.741Z,3.83
2022-08-05T16:08:01.032Z,4.20
2022-08-05T16:10:27.901Z,3.50
2022-08-05T16:12:56.315Z,3.97
2022-08-05T16:15:23.929Z,3.50
2022-08-05T16:17:58.023Z,3.85
2022-08-05T16:20:25.627Z,3.40
2022-08-05T16:22:55.036Z,3.22
2022-08-05T16:25:32.064Z,3.35
2022-08-05T16:28:06.531Z,3.00
2022-08-05T16:30:36.526Z,3.13
2022-08-05T16:33:03.198Z,3.60
2022-08-05T16:35:32.347Z,2.75
2022-08-05T16:38:15.234Z,2.38
2022-08-05T16:40:55.533Z,2.00
2022-08-05T16:43:30.130Z,1.70
2022-08-05T16:46:04.638Z,1.83
2022-08-05T16:48:37.883Z,1.20
2022-08-05T16:51:09.226Z,1.60
2022-08-05T16:54:05.422Z,1.37
2022-08-05T16:56:29.858Z,1.60
2022-08-05T16:58:57.370Z,1.70
2022-08-05T17:01:24.553Z,1.48
2022-08-05T17:03:51.785Z,1.73
2022-08-05T17:06:19.343Z,1.60
2022-08-05T17:08:52.829Z,1.27
2022-08-05T17:11:25.371Z,1.27
2022-08-05T17:14:00.145Z,1.30
2022-08-05T17:16:33.446Z,2.05
2022-08-05T17:19:01.148Z,1.30
2022-08-05T17:21:35.300Z,1.50
2022-08-05T17:24:30.234Z,1.30
2022-08-05T17:26:57.978Z,1.30
2022-08-05T17:29:33.137Z,1.67
2022-08-05T17:32:00.898Z,1.47
2022-08-05T17:34:30.028Z,1.40
2022-08-05T17:37:00.046Z,1.45
2022-08-05T17:39:33.255Z,1.10
2022-08-05T17:42:19.030Z,1.00
2022-08-05T17:44:50.346Z,1.00
2022-08-05T17:47:23.102Z,1.27
2022-08-05T17:50:03.892Z,1.30
2022-08-05T17:52:35.045Z,1.23
2022-08-05T17:55:20.868Z,1.30
2022-08-05T17:57:48.696Z,1.27
2022-08-05T18:00:17.523Z,1.20
2022-08-05T18:02:47.111Z,1.50
2022-08-05T18:05:16.827Z,1.08
2022-08-05T18:07:44.695Z,1.58
2022-08-05T18:10:20.536Z,1.43
2022-08-05T18:12:48.873Z,1.30
2022-08-05T18:15:15.478Z,1.20
2022-08-05T18:18:00.987Z,1.00
2022-08-05T18:20:29.512Z,1.25
2022-08-05T18:23:00.554Z,1.27
2022-08-05T18:25:39.487Z,1.35
2022-08-05T18:28:09.546Z,1.35
2022-08-05T18:30:39.089Z,1.05
2022-08-05T18:33:08.462Z,2.08
2022-08-05T18:36:00.876Z,1.27
2022-08-05T18:38:26.241Z,1.17
2022-08-05T18:41:55.541Z,1.30
2022-08-05T18:43:43.224Z,1.13
2022-08-05T18:46:20.131Z,1.50
2022-08-05T18:48:51.927Z,1.33
2022-08-05T18:52:04.625Z,1.38
2022-08-05T18:54:27.631Z,1.55
2022-08-05T18:56:57.472Z,1.50
2022-08-05T18:59:44.143Z,1.17
2022-08-05T19:02:28.286Z,1.53
2022-08-05T19:05:02.225Z,1.40
2022-08-05T19:07:46.619Z,1.60
2022-08-05T19:10:18.498Z,1.20
2022-08-05T19:12:53.340Z,1.23
2022-08-05T19:15:56.825Z,1.23
2022-08-05T19:18:10.334Z,1.27
2022-08-05T19:20:41.457Z,1.30
2022-08-05T19:23:22.411Z,1.17
2022-08-05T19:26:01.992Z,1.40
2022-08-05T19:28:30.710Z,1.20
2022-08-05T19:30:57.825Z,1.05
2022-08-05T19:33:35.064Z,1.02
2022-08-05T19:36:02.707Z,1.75
2022-08-05T19:38:32.599Z,1.27
2022-08-05T19:40:59.188Z,1.30
2022-08-05T19:44:03.985Z,1.05
2022-08-05T19:46:16.667Z,1.35
2022-08-05T19:48:56.351Z,1.15
2022-08-05T19:51:37.855Z,1.17
2022-08-05T19:54:27.029Z,1.20
2022-08-05T19:56:57.749Z,1.00
2022-08-05T19:59:55.476Z,1.50
2022-08-05T20:02:10.980Z,1.40
2022-08-05T20:04:38.566Z,1.40
2022-08-05T20:07:13.181Z,1.00
2022-08-05T20:09:54.458Z,1.10
2022-08-05T20:12:25.613Z,1.35
2022-08-05T20:14:53.284Z,1.05
2022-08-05T20:17:23.653Z,1.05
2022-08-05T20:19:57.043Z,0.90
2022-08-05T20:22:26.730Z,1.52
2022-08-05T20:24:55.391Z,1.50
2022-08-05T20:27:26.802Z,1.40
2022-08-05T20:29:58.229Z,1.25
2022-08-05T20:32:27.569Z,1.30
2022-08-05T20:34:54.894Z,1.38
2022-08-05T20:38:04.975Z,1.77
2022-08-05T20:40:08.980Z,2.10
2022-08-05T20:42:35.706Z,2.28
2022-08-05T20:45:02.731Z,1.87
2022-08-05T20:47:31.705Z,2.38
2022-08-05T20:49:59.785Z,2.60
2022-08-05T20:52:28.899Z,2.30
2022-08-05T20:55:15.785Z,2.60
2022-08-05T20:57:44.349Z,2.30
2022-08-05T21:00:41.119Z,2.25
2022-08-05T21:03:04.601Z,2.50
2022-08-05T21:05:47.791Z,2.40
2022-08-05T21:08:26.699Z,1.90
2022-08-05T21:11:09.831Z,1.63
2022-08-05T21:13:47.540Z,1.33
2022-08-05T21:16:23.410Z,1.30
2022-08-05T21:18:59.834Z,1.20
2022-08-05T21:21:44.204Z,1.50
2022-08-05T21:24:16.276Z,1.70
2022-08-05T21:26:53.335Z,1.35
2022-08-05T21:29:26.246Z,1.45
2022-08-05T21:31:53.621Z,1.48
2022-08-05T21:34:20.442Z,1.10
2022-08-05T21:36:49.242Z,1.40
2022-08-05T21:39:16.815Z,1.50
2022-08-05T21:41:52.601Z,1.70
2022-08-05T21:44:19.468Z,1.30
2022-08-05T21:46:53.752Z,1.42
2022-08-05T21:50:00.199Z,1.57
2022-08-05T21:52:21.434Z,1.40
2022-08-05T21:54:55.476Z,1.65
2022-08-05T21:57:37.672Z,1.80
2022-08-05T22:00:11.653Z,1.10
2022-08-05T22:02:38.524Z,1.60
2022-08-05T22:05:06.194Z,1.40
2022-08-05T22:07:40.052Z,1.60
2022-08-05T22:10:26.501Z,1.40
2022-08-05T22:12:55.520Z,1.33
2022-08-05T22:16:01.874Z,1.40
2022-08-05T22:18:11.253Z,1.45
2022-08-05T22:20:38.983Z,1.63
2022-08-05T22:23:24.834Z,1.50
2022-08-05T22:26:29.916Z,1.55
2022-08-05T22:28:56.486Z,1.53
2022-08-05T22:31:23.120Z,1.75
2022-08-05T22:33:56.787Z,1.60
2022-08-05T22:36:27.125Z,1.75
2022-08-05T22:38:53.844Z,1.70
2022-08-05T22:41:26.408Z,2.03
2022-08-05T22:44:08.238Z,1.55
2022-08-05T22:46:39.487Z,1.92
2022-08-05T22:49:23.030Z,2.15
2022-08-05T22:52:06.102Z,1.98
2022-08-05T22:54:33.552Z,1.40
2022-08-05T22:57:00.116Z,1.48
2022-08-05T22:59:45.106Z,1.65
2022-08-05T23:02:13.686Z,1.50
2022-08-05T23:04:52.079Z,1.73
2022-08-05T23:07:21.820Z,1.40
2022-08-05T23:09:57.897Z,1.73
2022-08-05T23:12:32.951Z,1.83
2022-08-05T23:15:03.479Z,1.70
2022-08-05T23:17:34.514Z,1.60
2022-08-05T23:20:18.258Z,2.07
2022-08-05T23:22:47.807Z,1.35
2022-08-05T23:25:17.059Z,1.60
2022-08-05T23:28:00.346Z,1.60
2022-08-05T23:30:29.107Z,1.67
2022-08-05T23:32:57.840Z,1.30
2022-08-05T23:35:28.544Z,1.05
2022-08-05T23:38:01.123Z,1.40
2022-08-05T23:40:27.839Z,1.00
2022-08-05T23:42:54.457Z,1.10
2022-08-05T23:45:21.129Z,1.20
2022-08-05T23:47:53.667Z,0.90
2022-08-05T23:50:26.020Z,1.05
2022-08-05T23:52:55.235Z,1.23
2022-08-05T23:55:22.377Z,1.05
2022-08-05T23:57:52.681Z,1.13
